Time;durP1;ratioP1;P1;durP2;ratioP2;P2;SDS_P1;SDS_P2;PMS_P1;PMS_P2;Temp;Humidity;BMP_temperature;BMP_pressure;BME280_temperature;BME280_humidity;BME280_pressure;Samples;Min_cycle;Max_cycle;Signal;HPM_P1;HPM_P2
2022/07/03 00:01:06;;;;;;;;;;;11.70;99.90;;;;;;5118837;27;19916;-58
2022/07/03 00:03:46;;;;;;;;;;;11.70;99.90;;;;;;5092097;27;19922;-58
2022/07/03 00:06:27;;;;;;;;;;;11.70;99.90;;;;;;5109905;27;19918;-58
2022/07/03 00:09:07;;;;;;;;;;;11.70;99.90;;;;;;5099337;27;19926;-58
2022/07/03 00:11:47;;;;;;;;;;;11.60;99.90;;;;;;5099540;27;20660;-58
2022/07/03 00:14:31;;;;;;;;;;;11.60;99.90;;;;;;5123195;27;19912;-58
2022/07/03 00:17:12;;;;;;;;;;;11.60;99.90;;;;;;5138726;27;19918;-58
2022/07/03 00:19:52;;;;;;;;;;;11.60;99.90;;;;;;5115650;27;19924;-57
2022/07/03 00:22:33;;;;;;;;;;;11.60;99.90;;;;;;5097922;27;19912;-57
2022/07/03 00:25:13;;;;;;;;;;;11.50;99.90;;;;;;5122964;27;19916;-59
2022/07/03 00:27:54;;;;;;;;;;;11.50;99.90;;;;;;5123247;27;19912;-58
2022/07/03 00:30:34;;;;;;;;;;;11.40;99.90;;;;;;5120940;27;19916;-57
2022/07/03 00:33:15;;;;;;;;;;;11.30;99.90;;;;;;5081391;27;19920;-58
2022/07/03 00:35:56;;;;;;;;;;;11.20;99.90;;;;;;5096241;27;19920;-58
2022/07/03 00:38:35;;;;;;;;;;;11.20;99.90;;;;;;5102094;27;19912;-58
2022/07/03 00:41:26;;;;;;;;;;;11.20;99.90;;;;;;5103512;27;19920;-58
2022/07/03 00:44:06;;;;;;;;;;;11.10;99.90;;;;;;5103830;27;19926;-58
2022/07/03 00:46:51;;;;;;;;;;;11.10;99.90;;;;;;5124411;27;19912;-58
2022/07/03 00:49:32;;;;;;;;;;;11.00;99.90;;;;;;5124436;27;20399;-58
2022/07/03 00:52:14;;;;;;;;;;;11.00;99.90;;;;;;5076863;28;20294;-58
2022/07/03 00:54:54;;;;;;;;;;;11.00;99.90;;;;;;5124940;27;19934;-57
2022/07/03 00:57:36;;;;;;;;;;;11.10;99.90;;;;;;5121837;27;19938;-58
2022/07/03 01:00:17;;;;;;;;;;;11.10;99.90;;;;;;5103301;27;19926;-58
2022/07/03 01:03:02;;;;;;;;;;;11.10;99.90;;;;;;5109825;27;19918;-58
2022/07/03 01:05:45;;;;;;;;;;;11.00;99.90;;;;;;5109615;27;20069;-58
2022/07/03 01:08:29;;;;;;;;;;;11.10;99.90;;;;;;5111618;27;19920;-58
2022/07/03 01:11:13;;;;;;;;;;;11.10;99.90;;;;;;5101968;27;19926;-58
2022/07/03 01:14:02;;;;;;;;;;;11.10;99.90;;;;;;5082921;27;19930;-57
2022/07/03 01:16:57;;;;;;;;;;;11.10;99.90;;;;;;5123004;27;19925;-57
2022/07/03 01:19:41;;;;;;;;;;;11.20;99.90;;;;;;5124243;27;20377;-58
2022/07/03 01:22:32;;;;;;;;;;;11.10;99.90;;;;;;5086942;27;19930;-58
2022/07/03 01:25:15;;;;;;;;;;;11.10;99.90;;;;;;5115909;27;19916;-59
2022/07/03 01:27:59;;;;;;;;;;;11.00;99.90;;;;;;5122953;27;19912;-58
2022/07/03 01:30:41;;;;;;;;;;;11.00;99.90;;;;;;5122569;27;20407;-58
2022/07/03 01:33:22;;;;;;;;;;;11.00;99.90;;;;;;5087203;27;20293;-58
2022/07/03 01:36:09;;;;;;;;;;;11.00;99.90;;;;;;5123582;27;19912;-58
2022/07/03 01:38:49;;;;;;;;;;;11.00;99.90;;;;;;5103790;27;20116;-59
2022/07/03 01:41:31;;;;;;;;;;;10.80;99.90;;;;;;5123131;27;19920;-57
2022/07/03 01:44:14;;;;;;;;;;;10.70;99.90;;;;;;5112297;27;19912;-58
2022/07/03 01:46:57;;;;;;;;;;;10.60;99.90;;;;;;5123509;27;19918;-58
2022/07/03 01:49:40;;;;;;;;;;;10.50;99.90;;;;;;5120178;27;19916;-57
2022/07/03 01:52:20;;;;;;;;;;;10.50;99.90;;;;;;5095006;27;20320;-59
2022/07/03 01:55:01;;;;;;;;;;;10.40;99.90;;;;;;5123838;27;19912;-59
2022/07/03 01:57:43;;;;;;;;;;;10.30;99.90;;;;;;5112437;27;20348;-57
2022/07/03 02:00:24;;;;;;;;;;;10.30;99.90;;;;;;5103693;27;19916;-58
2022/07/03 02:03:22;;;;;;;;;;;10.30;99.90;;;;;;5115698;22;19926;-55
2022/07/03 02:06:07;;;;;;;;;;;10.30;99.90;;;;;;5121915;27;19911;-55
2022/07/03 02:08:49;;;;;;;;;;;10.30;99.90;;;;;;5108525;27;21386;-55
2022/07/03 02:11:33;;;;;;;;;;;10.30;99.90;;;;;;5097636;27;19928;-54
2022/07/03 02:14:15;;;;;;;;;;;10.20;99.90;;;;;;5106988;27;19912;-55
2022/07/03 02:17:03;;;;;;;;;;;10.20;99.90;;;;;;5101369;27;19953;-55
2022/07/03 02:19:49;;;;;;;;;;;10.10;99.90;;;;;;5083002;28;20279;-55
2022/07/03 02:22:32;;;;;;;;;;;10.00;99.90;;;;;;5122963;27;19911;-55
2022/07/03 02:25:16;;;;;;;;;;;10.10;99.90;;;;;;5124714;27;19912;-55
2022/07/03 02:27:58;;;;;;;;;;;10.00;99.90;;;;;;5123953;27;19916;-55
2022/07/03 02:30:42;;;;;;;;;;;9.90;99.90;;;;;;5124726;27;19912;-55
2022/07/03 02:33:26;;;;;;;;;;;9.90;99.90;;;;;;5115086;27;19916;-55
2022/07/03 02:36:10;;;;;;;;;;;9.90;99.90;;;;;;5103177;27;19924;-55
2022/07/03 02:38:53;;;;;;;;;;;9.80;99.90;;;;;;5123832;27;19916;-55
2022/07/03 02:41:38;;;;;;;;;;;9.90;99.90;;;;;;5111100;27;19919;-54
2022/07/03 02:44:26;;;;;;;;;;;9.90;99.90;;;;;;5086404;27;19934;-55
2022/07/03 02:47:12;;;;;;;;;;;10.00;99.90;;;;;;5100830;27;20373;-55
2022/07/03 02:49:59;;;;;;;;;;;10.00;99.90;;;;;;5104041;27;19920;-54
2022/07/03 02:52:45;;;;;;;;;;;10.00;99.90;;;;;;5120878;27;19916;-55
2022/07/03 02:55:35;;;;;;;;;;;10.00;99.90;;;;;;5103379;27;19926;-55
2022/07/03 02:58:24;;;;;;;;;;;9.80;99.90;;;;;;5121955;27;20331;-55
2022/07/03 03:01:08;;;;;;;;;;;9.80;99.90;;;;;;5122380;27;20411;-55
2022/07/03 03:03:51;;;;;;;;;;;9.80;99.90;;;;;;5119318;27;19924;-55
2022/07/03 03:06:33;;;;;;;;;;;9.80;99.90;;;;;;5103626;27;19912;-55
2022/07/03 03:09:15;;;;;;;;;;;9.70;99.90;;;;;;5101657;27;20335;-54
2022/07/03 03:11:57;;;;;;;;;;;9.70;99.90;;;;;;5123003;27;19911;-55
2022/07/03 03:14:39;;;;;;;;;;;9.60;99.90;;;;;;5124172;27;19911;-55
2022/07/03 03:17:24;;;;;;;;;;;9.70;99.90;;;;;;5122973;27;19911;-55
2022/07/03 03:20:07;;;;;;;;;;;9.70;99.90;;;;;;5124235;27;19912;-55
2022/07/03 03:22:53;;;;;;;;;;;9.70;99.90;;;;;;5099314;27;19914;-55
2022/07/03 03:25:34;;;;;;;;;;;9.80;99.90;;;;;;5103715;27;19916;-55
2022/07/03 03:28:14;;;;;;;;;;;9.80;99.90;;;;;;5103484;27;19916;-55
2022/07/03 03:30:56;;;;;;;;;;;9.80;99.90;;;;;;5123810;27;20377;-55
2022/07/03 03:33:39;;;;;;;;;;;9.80;99.90;;;;;;5124124;27;19911;-55
2022/07/03 03:36:21;;;;;;;;;;;9.90;99.90;;;;;;5123703;27;19912;-55
2022/07/03 03:39:01;;;;;;;;;;;9.90;99.90;;;;;;5103703;27;19912;-55
2022/07/03 03:41:41;;;;;;;;;;;10.00;99.90;;;;;;5103364;27;19912;-55
2022/07/03 03:44:21;;;;;;;;;;;10.00;99.90;;;;;;5094631;27;19954;-55
2022/07/03 03:47:01;;;;;;;;;;;10.10;99.90;;;;;;5119590;27;19915;-55
2022/07/03 03:49:41;;;;;;;;;;;10.30;99.90;;;;;;5091628;27;20355;-55
2022/07/03 03:52:20;;;;;;;;;;;10.30;99.90;;;;;;5102069;27;19926;-55
2022/07/03 03:55:00;;;;;;;;;;;10.40;99.90;;;;;;5102599;27;19912;-55
2022/07/03 03:57:40;;;;;;;;;;;10.40;99.90;;;;;;5100065;27;19920;-55
2022/07/03 04:00:20;;;;;;;;;;;10.40;99.90;;;;;;5077342;28;19946;-55
2022/07/03 04:03:00;;;;;;;;;;;10.60;99.90;;;;;;5123345;27;19911;-55
2022/07/03 04:05:39;;;;;;;;;;;10.70;99.90;;;;;;5091395;27;19916;-55
2022/07/03 04:08:19;;;;;;;;;;;10.80;99.90;;;;;;5082187;28;19913;-55
2022/07/03 04:10:59;;;;;;;;;;;10.80;99.90;;;;;;5124424;27;19912;-55
2022/07/03 04:13:39;;;;;;;;;;;11.00;99.90;;;;;;5119773;27;19912;-55
2022/07/03 04:16:19;;;;;;;;;;;11.10;99.90;;;;;;5122705;27;19915;-55
2022/07/03 04:18:58;;;;;;;;;;;11.50;99.90;;;;;;5123755;27;20608;-55
2022/07/03 04:21:38;;;;;;;;;;;13.10;99.90;;;;;;5125098;27;20369;-55
2022/07/03 04:24:18;;;;;;;;;;;15.10;99.90;;;;;;5123578;27;19912;-55
2022/07/03 04:26:58;;;;;;;;;;;17.10;99.90;;;;;;5123856;27;19916;-55
2022/07/03 04:29:38;;;;;;;;;;;18.60;99.90;;;;;;5100692;27;19962;-55
2022/07/03 04:32:18;;;;;;;;;;;19.40;99.90;;;;;;5117622;27;19922;-54
2022/07/03 04:34:57;;;;;;;;;;;19.90;99.90;;;;;;5102514;27;19966;-55
2022/07/03 04:37:37;;;;;;;;;;;20.40;99.90;;;;;;5157194;27;20135;-55
2022/07/03 04:40:17;;;;;;;;;;;20.70;99.90;;;;;;5124551;27;20186;-54
2022/07/03 04:42:57;;;;;;;;;;;20.90;99.90;;;;;;5124339;27;19911;-55
2022/07/03 04:45:37;;;;;;;;;;;21.00;99.90;;;;;;5106696;27;19924;-55
2022/07/03 04:48:17;;;;;;;;;;;20.80;99.90;;;;;;5096789;27;20340;-55
2022/07/03 04:50:57;;;;;;;;;;;21.30;99.90;;;;;;5102732;27;19912;-55
2022/07/03 04:53:36;;;;;;;;;;;21.60;99.90;;;;;;5112107;27;19913;-55
2022/07/03 04:56:16;;;;;;;;;;;21.60;99.90;;;;;;5102233;27;19912;-54
2022/07/03 04:58:56;;;;;;;;;;;21.70;99.90;;;;;;5117697;27;19916;-55
2022/07/03 05:01:36;;;;;;;;;;;22.00;99.90;;;;;;5123042;27;20208;-54
2022/07/03 05:04:16;;;;;;;;;;;22.20;99.90;;;;;;5123194;27;20365;-55
2022/07/03 05:06:55;;;;;;;;;;;22.30;99.90;;;;;;5122248;27;19912;-55
2022/07/03 05:09:47;;;;;;;;;;;22.50;99.90;;;;;;5123897;27;20422;-54
2022/07/03 05:12:27;;;;;;;;;;;23.00;99.90;;;;;;5102877;27;19912;-54
2022/07/03 05:15:08;;;;;;;;;;;23.00;99.90;;;;;;5124544;27;19919;-54
2022/07/03 05:17:48;;;;;;;;;;;23.10;99.90;;;;;;5123630;27;19911;-55
2022/07/03 05:20:29;;;;;;;;;;;23.20;95.60;;;;;;5124209;27;19912;-55
2022/07/03 05:23:09;;;;;;;;;;;23.40;97.20;;;;;;5124750;27;20312;-54
2022/07/03 05:25:49;;;;;;;;;;;23.50;96.00;;;;;;5103829;27;19926;-54
2022/07/03 05:28:29;;;;;;;;;;;23.30;95.20;;;;;;5125015;27;19911;-54
2022/07/03 05:31:09;;;;;;;;;;;23.00;96.30;;;;;;5104005;27;19957;-55
2022/07/03 05:33:49;;;;;;;;;;;23.20;95.00;;;;;;5104121;27;20183;-55
2022/07/03 05:36:29;;;;;;;;;;;23.30;94.70;;;;;;5103997;27;20446;-54
2022/07/03 05:42:06;;;;;;;;;;;23.40;93.10;;;;;;5083929;28;19924;-54
2022/07/03 05:44:46;;;;;;;;;;;22.90;96.30;;;;;;5124624;27;19918;-54
2022/07/03 05:47:25;;;;;;;;;;;22.00;99.90;;;;;;5103267;27;19916;-54
2022/07/03 05:50:06;;;;;;;;;;;21.20;99.90;;;;;;5104261;27;20458;-55
2022/07/03 05:52:47;;;;;;;;;;;20.60;99.90;;;;;;5104257;27;19920;-55
2022/07/03 05:55:26;;;;;;;;;;;20.10;99.90;;;;;;5124731;27;19912;-54
2022/07/03 05:58:06;;;;;;;;;;;19.80;99.90;;;;;;5102010;27;20332;-54
2022/07/03 06:00:46;;;;;;;;;;;19.70;99.90;;;;;;5082222;28;19912;-55
2022/07/03 06:03:26;;;;;;;;;;;19.60;99.90;;;;;;5086946;27;19931;-54
2022/07/03 06:06:06;;;;;;;;;;;19.60;99.90;;;;;;5105281;27;20313;-54
2022/07/03 06:08:46;;;;;;;;;;;19.80;99.90;;;;;;5071339;27;19965;-54
2022/07/03 06:11:25;;;;;;;;;;;19.90;99.90;;;;;;5099728;27;19924;-54
2022/07/03 06:14:05;;;;;;;;;;;20.00;99.90;;;;;;5094943;27;19930;-54
2022/07/03 06:16:45;;;;;;;;;;;20.10;99.90;;;;;;5081536;28;19912;-54
2022/07/03 06:19:25;;;;;;;;;;;20.20;99.90;;;;;;5114668;27;19916;-55
2022/07/03 06:22:05;;;;;;;;;;;20.20;99.90;;;;;;5119892;27;19919;-55
2022/07/03 06:24:45;;;;;;;;;;;20.30;99.90;;;;;;5123036;27;19915;-54
2022/07/03 06:27:25;;;;;;;;;;;20.30;99.90;;;;;;5123674;27;19916;-55
2022/07/03 06:30:05;;;;;;;;;;;20.50;99.90;;;;;;5102218;27;19931;-55
2022/07/03 06:32:46;;;;;;;;;;;20.70;99.90;;;;;;5098186;27;20025;-54
2022/07/03 06:35:26;;;;;;;;;;;20.80;99.90;;;;;;5098894;27;19916;-54
2022/07/03 06:38:05;;;;;;;;;;;20.80;99.90;;;;;;5114615;27;20451;-55
2022/07/03 06:40:45;;;;;;;;;;;20.80;99.90;;;;;;5103848;27;19920;-55
2022/07/03 06:43:25;;;;;;;;;;;20.90;99.90;;;;;;5124067;27;19916;-55
2022/07/03 06:46:05;;;;;;;;;;;21.10;99.90;;;;;;5121954;27;19952;-55
2022/07/03 06:48:45;;;;;;;;;;;21.30;99.90;;;;;;5105794;27;19916;-55
2022/07/03 06:51:24;;;;;;;;;;;21.40;99.90;;;;;;5120551;27;20316;-55
2022/07/03 06:54:04;;;;;;;;;;;21.60;99.90;;;;;;5085675;27;19935;-55
2022/07/03 06:56:44;;;;;;;;;;;21.90;99.90;;;;;;5108649;27;19912;-55
2022/07/03 06:59:24;;;;;;;;;;;21.90;99.90;;;;;;5143692;27;19919;-55
2022/07/03 07:02:04;;;;;;;;;;;22.00;99.90;;;;;;5087006;27;20122;-55
2022/07/03 07:04:44;;;;;;;;;;;22.10;99.90;;;;;;5102012;27;19919;-54
2022/07/03 07:07:23;;;;;;;;;;;22.10;99.90;;;;;;5122943;27;19920;-55
2022/07/03 07:10:04;;;;;;;;;;;22.20;99.90;;;;;;5098612;27;19931;-55
2022/07/03 07:12:43;;;;;;;;;;;22.20;99.90;;;;;;5103606;27;19913;-55
2022/07/03 07:15:23;;;;;;;;;;;22.30;99.90;;;;;;5122506;27;19918;-55
2022/07/03 07:18:03;;;;;;;;;;;22.30;99.90;;;;;;5121377;27;19912;-55
2022/07/03 07:20:43;;;;;;;;;;;22.40;99.90;;;;;;5111269;27;20339;-55
2022/07/03 07:23:23;;;;;;;;;;;22.30;99.90;;;;;;5072908;28;19923;-55
2022/07/03 07:26:02;;;;;;;;;;;22.40;99.90;;;;;;5123329;27;19912;-54
2022/07/03 07:28:42;;;;;;;;;;;22.50;99.90;;;;;;5123981;27;19912;-55
2022/07/03 07:31:22;;;;;;;;;;;22.60;99.90;;;;;;5122330;27;19924;-56
2022/07/03 07:34:04;;;;;;;;;;;22.60;99.90;;;;;;5073439;28;20370;-55
2022/07/03 07:36:43;;;;;;;;;;;22.70;99.90;;;;;;5065424;28;19927;-55
2022/07/03 07:39:23;;;;;;;;;;;22.80;99.90;;;;;;5120863;27;19918;-55
2022/07/03 07:42:03;;;;;;;;;;;22.90;99.90;;;;;;5123147;27;20376;-55
2022/07/03 07:44:43;;;;;;;;;;;23.00;99.90;;;;;;5103947;27;19926;-55
2022/07/03 07:47:22;;;;;;;;;;;23.00;99.90;;;;;;5103938;27;19926;-55
2022/07/03 07:50:03;;;;;;;;;;;23.10;99.40;;;;;;5116424;27;19919;-55
2022/07/03 07:52:42;;;;;;;;;;;23.10;99.10;;;;;;5103166;27;19946;-55
2022/07/03 07:55:22;;;;;;;;;;;23.30;98.90;;;;;;5123863;27;19920;-55
2022/07/03 07:58:02;;;;;;;;;;;23.40;97.40;;;;;;5122981;27;20312;-55
2022/07/03 08:05:35;;;;;;;;;;;23.50;96.70;;;;;;5123405;27;20373;-55
2022/07/03 08:06:42;;;;;;;;;;;23.70;97.00;;;;;;5092095;27;20419;-55
2022/07/03 08:09:23;;;;;;;;;;;23.80;95.10;;;;;;5109071;27;19912;-56
2022/07/03 08:12:03;;;;;;;;;;;23.90;95.40;;;;;;5123474;27;19915;-55
2022/07/03 08:14:42;;;;;;;;;;;24.00;94.20;;;;;;5123230;27;19912;-55
2022/07/03 08:17:22;;;;;;;;;;;24.10;93.90;;;;;;5123282;27;20322;-56
2022/07/03 08:20:02;;;;;;;;;;;24.00;93.30;;;;;;5096141;27;19913;-55
2022/07/03 08:22:42;;;;;;;;;;;24.00;94.40;;;;;;5099344;27;19912;-55
2022/07/03 08:25:22;;;;;;;;;;;24.20;94.00;;;;;;5102113;27;20122;-56
2022/07/03 08:28:01;;;;;;;;;;;24.40;92.90;;;;;;5102904;27;19973;-56
2022/07/03 08:30:41;;;;;;;;;;;24.60;92.60;;;;;;5101842;27;20319;-55
2022/07/03 08:33:21;;;;;;;;;;;24.60;90.60;;;;;;5115142;27;19915;-55
2022/07/03 08:36:01;;;;;;;;;;;24.60;92.50;;;;;;5085978;27;19928;-56
2022/07/03 08:38:41;;;;;;;;;;;24.50;93.20;;;;;;5122705;27;19912;-56
2022/07/03 08:41:21;;;;;;;;;;;24.60;91.70;;;;;;5123461;27;19912;-55
2022/07/03 08:44:02;;;;;;;;;;;24.80;91.00;;;;;;5109691;27;19912;-55
2022/07/03 08:46:44;;;;;;;;;;;24.90;92.80;;;;;;5081800;28;20498;-54
2022/07/03 08:49:26;;;;;;;;;;;25.00;90.40;;;;;;5124293;27;20183;-54
2022/07/03 08:52:09;;;;;;;;;;;24.90;90.20;;;;;;5125052;27;19919;-55
2022/07/03 08:54:50;;;;;;;;;;;25.00;88.90;;;;;;5147814;27;19911;-55
2022/07/03 08:57:32;;;;;;;;;;;25.10;88.50;;;;;;5077497;27;19917;-56
2022/07/03 09:00:14;;;;;;;;;;;25.30;87.80;;;;;;5115024;27;19915;-54
2022/07/03 09:02:55;;;;;;;;;;;25.40;86.30;;;;;;5117319;27;19916;-54
2022/07/03 09:05:35;;;;;;;;;;;25.40;84.40;;;;;;5102988;27;20385;-55
2022/07/03 09:08:16;;;;;;;;;;;25.40;84.60;;;;;;5096240;27;20180;-54
2022/07/03 09:10:56;;;;;;;;;;;25.50;84.10;;;;;;5119688;27;19912;-54
2022/07/03 09:13:36;;;;;;;;;;;25.50;84.10;;;;;;5149334;27;20355;-55
2022/07/03 09:16:17;;;;;;;;;;;25.60;81.70;;;;;;5101405;27;19926;-56
2022/07/03 09:18:57;;;;;;;;;;;25.80;80.00;;;;;;5123089;27;20191;-56
2022/07/03 09:21:38;;;;;;;;;;;25.90;78.60;;;;;;5124644;27;19916;-54
2022/07/03 09:24:19;;;;;;;;;;;25.90;78.80;;;;;;5104114;27;19926;-55
2022/07/03 09:26:58;;;;;;;;;;;26.00;76.00;;;;;;5122938;27;19916;-55
2022/07/03 09:29:51;;;;;;;;;;;26.00;75.30;;;;;;5104091;27;19912;-56
2022/07/03 09:32:42;;;;;;;;;;;26.10;77.40;;;;;;5125027;27;19922;-55
2022/07/03 09:35:23;;;;;;;;;;;26.30;74.80;;;;;;5124637;27;19912;-55
2022/07/03 09:38:04;;;;;;;;;;;26.40;71.10;;;;;;5123748;27;19912;-54
2022/07/03 09:40:51;;;;;;;;;;;26.60;71.70;;;;;;5083213;28;19912;-56
2022/07/03 09:43:32;;;;;;;;;;;26.60;72.10;;;;;;5124305;27;19912;-54
2022/07/03 09:46:13;;;;;;;;;;;26.70;73.20;;;;;;5124274;27;20384;-55
2022/07/03 09:48:52;;;;;;;;;;;26.70;67.00;;;;;;5120921;27;19927;-55
2022/07/03 09:51:34;;;;;;;;;;;26.40;67.30;;;;;;5100245;27;20173;-55
2022/07/03 09:54:15;;;;;;;;;;;26.50;66.80;;;;;;5106678;27;19912;-55
2022/07/03 09:56:55;;;;;;;;;;;26.70;66.70;;;;;;5121965;27;19919;-55
2022/07/03 09:59:35;;;;;;;;;;;27.20;63.90;;;;;;5159516;27;19919;-55
2022/07/03 10:02:15;;;;;;;;;;;27.60;59.60;;;;;;5118692;27;19915;-55
2022/07/03 10:05:11;;;;;;;;;;;27.90;58.80;;;;;;5109546;27;20353;-55
2022/07/03 10:07:54;;;;;;;;;;;28.30;60.40;;;;;;5121641;27;20307;-55
2022/07/03 10:10:36;;;;;;;;;;;28.80;55.70;;;;;;5124210;27;19918;-55
2022/07/03 10:13:16;;;;;;;;;;;29.20;54.70;;;;;;5125032;27;19912;-55
2022/07/03 10:15:57;;;;;;;;;;;29.10;53.60;;;;;;5123791;27;20308;-56
2022/07/03 10:18:37;;;;;;;;;;;29.00;53.00;;;;;;5121564;27;19920;-55
2022/07/03 10:21:18;;;;;;;;;;;29.00;55.50;;;;;;5122949;27;19985;-55
2022/07/03 10:23:58;;;;;;;;;;;29.20;50.50;;;;;;5082286;27;20328;-55
2022/07/03 10:26:39;;;;;;;;;;;29.10;52.90;;;;;;5121985;27;19916;-54
2022/07/03 10:29:21;;;;;;;;;;;29.10;50.40;;;;;;5124185;27;20413;-55
2022/07/03 10:32:02;;;;;;;;;;;29.00;51.10;;;;;;5101942;27;19912;-55
2022/07/03 10:34:42;;;;;;;;;;;29.00;52.10;;;;;;5143444;27;19916;-54
2022/07/03 10:37:26;;;;;;;;;;;29.10;53.50;;;;;;5118660;27;19912;-55
2022/07/03 10:46:10;;;;;;;;;;;29.20;53.30;;;;;;5123784;27;20342;-54
2022/07/03 10:48:52;;;;;;;;;;;29.20;49.30;;;;;;5103929;27;19912;-55
2022/07/03 10:51:51;;;;;;;;;;;29.40;49.70;;;;;;5124415;27;19912;-55
2022/07/03 10:54:33;;;;;;;;;;;29.80;48.70;;;;;;5124438;27;19911;-55
2022/07/03 10:57:18;;;;;;;;;;;29.90;48.00;;;;;;5119162;27;19915;-55
2022/07/03 11:00:15;;;;;;;;;;;29.90;49.20;;;;;;5122389;27;20222;-54
2022/07/03 11:02:54;;;;;;;;;;;30.00;48.30;;;;;;5123029;27;19912;-55
2022/07/03 11:05:40;;;;;;;;;;;30.00;48.40;;;;;;5124293;27;19912;-54
2022/07/03 11:08:20;;;;;;;;;;;30.20;46.80;;;;;;5124820;27;20295;-54
2022/07/03 11:14:11;;;;;;;;;;;30.10;46.80;;;;;;5069485;28;19912;-55
2022/07/03 11:17:12;;;;;;;;;;;30.40;45.50;;;;;;5100325;27;19961;-54
2022/07/03 11:22:52;;;;;;;;;;;30.20;45.80;;;;;;5097243;27;20438;-55
2022/07/03 11:25:40;;;;;;;;;;;30.00;45.40;;;;;;5124464;27;19911;-55
2022/07/03 11:28:49;;;;;;;;;;;29.90;46.70;;;;;;5104543;27;20418;-55
2022/07/03 11:31:29;;;;;;;;;;;29.70;44.50;;;;;;5124480;27;19912;-55
2022/07/03 11:34:09;;;;;;;;;;;29.40;44.00;;;;;;5124054;27;20323;-55
2022/07/03 11:36:49;;;;;;;;;;;29.50;44.80;;;;;;5103341;27;19918;-55
2022/07/03 11:39:29;;;;;;;;;;;29.70;44.30;;;;;;5103853;27;19926;-56
2022/07/03 11:42:09;;;;;;;;;;;29.90;42.80;;;;;;5104247;27;19916;-55
2022/07/03 11:44:48;;;;;;;;;;;30.00;43.20;;;;;;5105081;27;19969;-54
2022/07/03 11:47:28;;;;;;;;;;;30.10;42.40;;;;;;5119784;27;19912;-55
2022/07/03 11:50:08;;;;;;;;;;;29.90;42.20;;;;;;5122685;27;20369;-55
2022/07/03 11:52:51;;;;;;;;;;;30.00;41.60;;;;;;5102702;27;20383;-55
2022/07/03 11:55:31;;;;;;;;;;;30.10;40.40;;;;;;5124489;27;20099;-54
2022/07/03 11:58:11;;;;;;;;;;;30.20;42.40;;;;;;5123962;27;19929;-54
2022/07/03 12:00:51;;;;;;;;;;;30.30;40.60;;;;;;5117734;27;19916;-54
2022/07/03 12:03:32;;;;;;;;;;;30.10;37.50;;;;;;5100540;27;20377;-55
2022/07/03 12:06:12;;;;;;;;;;;30.00;39.20;;;;;;5099612;27;19915;-55
2022/07/03 12:08:52;;;;;;;;;;;29.90;40.00;;;;;;5122165;27;19926;-54
2022/07/03 12:11:31;;;;;;;;;;;29.90;37.70;;;;;;5122662;27;19926;-54
2022/07/03 12:14:11;;;;;;;;;;;29.60;38.00;;;;;;5144053;27;19922;-55
2022/07/03 12:16:53;;;;;;;;;;;29.70;39.50;;;;;;5121826;27;19970;-55
2022/07/03 12:19:32;;;;;;;;;;;29.80;39.80;;;;;;5125319;27;19918;-54
2022/07/03 12:22:12;;;;;;;;;;;30.00;38.90;;;;;;5115795;27;19945;-54
2022/07/03 12:25:02;;;;;;;;;;;30.00;40.10;;;;;;5081715;28;20432;-54
2022/07/03 12:27:44;;;;;;;;;;;30.00;40.20;;;;;;5119343;27;19912;-54
2022/07/03 12:30:27;;;;;;;;;;;30.10;39.10;;;;;;5100609;27;19912;-54
2022/07/03 12:33:07;;;;;;;;;;;30.30;37.60;;;;;;5116397;27;19920;-54
2022/07/03 12:36:02;;;;;;;;;;;30.50;39.10;;;;;;5122278;27;19919;-55
2022/07/03 12:38:42;;;;;;;;;;;30.50;37.20;;;;;;5107947;27;19912;-55
2022/07/03 12:41:22;;;;;;;;;;;30.40;39.00;;;;;;5119061;27;20369;-54
2022/07/03 12:44:02;;;;;;;;;;;30.40;36.00;;;;;;5087896;27;19927;-55
2022/07/03 12:46:42;;;;;;;;;;;30.60;36.60;;;;;;5143624;27;19911;-54
2022/07/03 12:49:23;;;;;;;;;;;30.90;37.30;;;;;;5124436;27;19942;-55
2022/07/03 12:52:03;;;;;;;;;;;30.90;33.80;;;;;;5082003;28;19912;-55
2022/07/03 12:54:42;;;;;;;;;;;30.70;36.00;;;;;;5099046;27;19930;-55
2022/07/03 13:00:21;;;;;;;;;;;30.50;35.80;;;;;;5101045;27;20089;-55
2022/07/03 13:03:01;;;;;;;;;;;30.60;37.20;;;;;;5095935;27;20218;-55
2022/07/03 13:05:43;;;;;;;;;;;30.90;33.60;;;;;;5144910;27;19915;-54
2022/07/03 13:08:24;;;;;;;;;;;31.20;36.10;;;;;;5124923;27;19912;-55
2022/07/03 13:11:04;;;;;;;;;;;31.40;33.90;;;;;;5103763;27;19920;-55
2022/07/03 13:13:48;;;;;;;;;;;31.40;33.40;;;;;;5124649;27;19911;-54
2022/07/03 13:16:28;;;;;;;;;;;31.40;33.60;;;;;;5093879;27;19978;-55
2022/07/03 13:19:09;;;;;;;;;;;31.50;35.80;;;;;;5098708;27;19920;-55
2022/07/03 13:21:50;;;;;;;;;;;31.60;33.30;;;;;;5123234;27;19911;-55
2022/07/03 13:24:31;;;;;;;;;;;31.50;33.20;;;;;;5104648;27;19912;-55
2022/07/03 13:27:11;;;;;;;;;;;31.30;33.40;;;;;;5123294;27;19916;-55
2022/07/03 13:29:50;;;;;;;;;;;31.30;32.00;;;;;;5124067;27;19920;-55
2022/07/03 13:32:30;;;;;;;;;;;31.60;32.90;;;;;;5122208;27;19918;-55
2022/07/03 13:35:11;;;;;;;;;;;31.90;33.30;;;;;;5100028;27;20381;-55
2022/07/03 13:37:52;;;;;;;;;;;32.10;34.00;;;;;;5107657;27;19916;-55
2022/07/03 13:40:32;;;;;;;;;;;32.20;32.10;;;;;;5102320;27;19912;-55
2022/07/03 13:43:13;;;;;;;;;;;32.10;31.70;;;;;;5114411;27;19916;-54
2022/07/03 13:45:53;;;;;;;;;;;32.10;30.80;;;;;;5132961;27;19912;-55
2022/07/03 13:48:32;;;;;;;;;;;32.30;31.40;;;;;;5089270;27;19924;-55
2022/07/03 13:51:12;;;;;;;;;;;32.30;32.20;;;;;;5157987;27;20310;-55
2022/07/03 13:53:52;;;;;;;;;;;32.00;30.10;;;;;;5090575;27;19916;-54
2022/07/03 13:56:32;;;;;;;;;;;31.60;33.50;;;;;;5123865;27;19912;-55
2022/07/03 13:59:12;;;;;;;;;;;31.60;33.40;;;;;;5139513;27;19911;-55
2022/07/03 14:01:53;;;;;;;;;;;31.70;30.40;;;;;;5123856;27;19969;-55
2022/07/03 14:04:33;;;;;;;;;;;31.90;30.70;;;;;;5084419;27;20317;-55
2022/07/03 14:07:13;;;;;;;;;;;31.90;30.00;;;;;;5101415;27;19912;-55
2022/07/03 14:09:53;;;;;;;;;;;32.00;29.40;;;;;;5100902;27;19957;-54
2022/07/03 14:12:32;;;;;;;;;;;32.10;29.70;;;;;;5082292;27;19916;-54
2022/07/03 14:15:13;;;;;;;;;;;32.30;30.80;;;;;;5102573;27;20438;-55
2022/07/03 14:17:54;;;;;;;;;;;32.50;30.70;;;;;;5123684;27;19912;-55
2022/07/03 14:20:34;;;;;;;;;;;32.60;29.90;;;;;;5103518;27;19953;-55
2022/07/03 14:23:13;;;;;;;;;;;32.70;29.10;;;;;;5115443;27;19969;-55
2022/07/03 14:25:55;;;;;;;;;;;32.70;29.50;;;;;;5103600;27;20126;-55
2022/07/03 14:34:41;;;;;;;;;;;32.50;28.20;;;;;;5083770;27;19958;-55
2022/07/03 14:37:21;;;;;;;;;;;32.50;28.20;;;;;;5101775;27;20423;-54
2022/07/03 14:40:00;;;;;;;;;;;32.30;29.20;;;;;;5123797;27;19926;-55
2022/07/03 14:42:41;;;;;;;;;;;32.30;28.80;;;;;;5105177;27;19912;-55
2022/07/03 14:45:22;;;;;;;;;;;32.40;28.10;;;;;;5083852;28;20378;-55
2022/07/03 14:48:01;;;;;;;;;;;32.40;27.80;;;;;;5102909;27;19927;-57
2022/07/03 14:50:41;;;;;;;;;;;32.40;27.40;;;;;;5103706;27;19912;-55
2022/07/03 14:53:22;;;;;;;;;;;32.40;26.80;;;;;;5104160;27;19927;-55
2022/07/03 14:56:02;;;;;;;;;;;32.30;28.00;;;;;;5102830;27;20570;-55
2022/07/03 14:58:45;;;;;;;;;;;32.40;28.80;;;;;;5083713;28;19912;-55
2022/07/03 15:01:26;;;;;;;;;;;32.70;28.30;;;;;;5155140;27;19911;-55
2022/07/03 15:04:11;;;;;;;;;;;32.90;27.30;;;;;;5104059;27;19945;-55
2022/07/03 15:06:51;;;;;;;;;;;33.00;28.30;;;;;;5124075;27;20739;-64
2022/07/03 15:09:33;;;;;;;;;;;33.00;24.90;;;;;;5125353;27;20369;-55
2022/07/03 15:12:28;;;;;;;;;;;32.80;24.80;;;;;;5124766;27;19912;-55
2022/07/03 15:15:11;;;;;;;;;;;32.90;24.90;;;;;;5124877;27;19912;-55
2022/07/03 15:17:52;;;;;;;;;;;32.70;25.30;;;;;;5103639;27;19958;-55
2022/07/03 15:20:34;;;;;;;;;;;32.90;26.00;;;;;;5125661;27;20257;-55
2022/07/03 15:23:18;;;;;;;;;;;32.90;25.20;;;;;;5116676;27;19912;-55
2022/07/03 15:25:58;;;;;;;;;;;32.80;26.10;;;;;;5103028;27;19977;-54
2022/07/03 15:28:39;;;;;;;;;;;33.30;25.50;;;;;;5104014;27;19926;-55
2022/07/03 15:31:19;;;;;;;;;;;34.80;24.10;;;;;;5122531;27;19911;-55
2022/07/03 15:34:02;;;;;;;;;;;36.10;22.70;;;;;;5103989;27;19916;-55
2022/07/03 15:36:45;;;;;;;;;;;37.10;20.20;;;;;;5103535;27;19969;-55
2022/07/03 15:39:28;;;;;;;;;;;37.50;20.50;;;;;;5123316;27;19915;-55
2022/07/03 15:42:11;;;;;;;;;;;37.70;19.90;;;;;;5122054;27;19920;-55
2022/07/03 15:44:55;;;;;;;;;;;38.60;19.10;;;;;;5102387;27;19912;-55
2022/07/03 15:47:43;;;;;;;;;;;39.60;18.80;;;;;;5097289;27;19957;-55
2022/07/03 15:50:32;;;;;;;;;;;40.10;18.30;;;;;;5102416;27;20184;-55
2022/07/03 15:53:15;;;;;;;;;;;40.70;18.60;;;;;;5084168;28;20366;-55
2022/07/03 15:55:59;;;;;;;;;;;40.70;16.40;;;;;;5123955;27;20324;-55
2022/07/03 15:58:41;;;;;;;;;;;40.40;16.50;;;;;;5123531;27;19912;-55
2022/07/03 16:04:25;;;;;;;;;;;41.30;16.30;;;;;;5081566;27;19921;-55
2022/07/03 16:07:09;;;;;;;;;;;41.00;18.00;;;;;;5122205;27;19915;-55
2022/07/03 16:09:49;;;;;;;;;;;40.90;16.50;;;;;;5100996;27;19916;-55
2022/07/03 16:12:30;;;;;;;;;;;40.50;17.30;;;;;;5102018;27;19927;-55